Time;durP1;ratioP1;P1;durP2;ratioP2;P2;SDS_P1;SDS_P2;PMS_P1;PMS_P2;Temp;Humidity;BMP_temperature;BMP_pressure;BME280_temperature;BME280_humidity;BME280_pressure;Samples;Min_cycle;Max_cycle;Signal;HPM_P1;HPM_P2
2022/03/24 00:00:06;;;;;;;33.45;21.30;;;;;;;;;;5051942;28;20205;-74
2022/03/24 00:02:34;;;;;;;28.42;19.42;;;;;;;;;;5030514;28;20223;-76
2022/03/24 00:05:01;;;;;;;31.30;19.35;;;;;;;;;;5036246;28;20195;-75
2022/03/24 00:07:28;;;;;;;34.60;22.98;;;;;;;;;;5034794;28;20222;-78
2022/03/24 00:09:55;;;;;;;28.48;19.98;;;;;;;;;;5029656;28;20294;-74
2022/03/24 00:12:22;;;;;;;30.55;19.10;;;;;;;;;;5029550;28;20219;-73
2022/03/24 00:14:51;;;;;;;28.55;19.98;;;;;;;;;;5029942;28;20204;-75
2022/03/24 00:17:18;;;;;;;29.77;18.75;;;;;;;;;;5030257;28;20200;-76
2022/03/24 00:19:46;;;;;;;34.53;21.90;;;;;;;;;;5042058;28;20198;-76
2022/03/24 00:22:13;;;;;;;27.77;18.63;;;;;;;;;;5051323;28;20634;-75
2022/03/24 00:24:42;;;;;;;29.95;19.65;;;;;;;;;;5051023;28;20198;-78
2022/03/24 00:27:10;;;;;;;29.70;19.40;;;;;;;;;;5036310;28;20264;-75
2022/03/24 00:29:37;;;;;;;32.97;20.73;;;;;;;;;;5037751;28;20206;-77
2022/03/24 00:32:06;;;;;;;27.02;17.20;;;;;;;;;;5048601;28;20217;-77
2022/03/24 00:34:33;;;;;;;29.98;19.05;;;;;;;;;;5049114;28;20856;-74
2022/03/24 00:37:02;;;;;;;29.60;18.85;;;;;;;;;;5049298;28;20195;-77
2022/03/24 00:39:33;;;;;;;27.98;19.20;;;;;;;;;;5049884;28;20195;-80
2022/03/24 00:42:00;;;;;;;28.60;19.88;;;;;;;;;;5050312;28;20239;-75
2022/03/24 00:44:28;;;;;;;34.35;19.73;;;;;;;;;;5051373;28;20187;-75
2022/03/24 00:46:55;;;;;;;29.02;19.13;;;;;;;;;;5051350;28;20199;-76
2022/03/24 00:49:24;;;;;;;31.73;20.90;;;;;;;;;;5037036;28;20191;-75
2022/03/24 00:51:51;;;;;;;29.45;18.80;;;;;;;;;;5035321;28;20202;-75
2022/03/24 00:54:18;;;;;;;26.98;19.00;;;;;;;;;;5048780;28;20624;-74
2022/03/24 00:56:45;;;;;;;33.00;21.20;;;;;;;;;;5049137;28;20560;-74
2022/03/24 00:59:12;;;;;;;33.72;21.30;;;;;;;;;;5049398;28;20288;-75
2022/03/24 01:01:41;;;;;;;38.53;21.92;;;;;;;;;;5049542;28;20644;-75
2022/03/24 01:04:09;;;;;;;41.70;23.90;;;;;;;;;;5049164;28;20205;-77
2022/03/24 01:06:37;;;;;;;31.15;20.65;;;;;;;;;;5051056;28;20198;-76
2022/03/24 01:09:05;;;;;;;31.65;22.48;;;;;;;;;;5050885;28;20205;-76
2022/03/24 01:11:32;;;;;;;33.42;21.50;;;;;;;;;;5022478;28;20211;-75
2022/03/24 01:14:00;;;;;;;32.25;20.80;;;;;;;;;;5035777;28;20218;-76
2022/03/24 01:16:27;;;;;;;26.77;19.23;;;;;;;;;;5034486;28;20218;-73
2022/03/24 01:18:54;;;;;;;29.77;20.08;;;;;;;;;;5032453;28;20286;-78
2022/03/24 01:21:21;;;;;;;36.00;22.75;;;;;;;;;;5033187;28;20197;-78
2022/03/24 01:23:49;;;;;;;32.42;20.75;;;;;;;;;;5032999;28;20219;-76
2022/03/24 01:26:17;;;;;;;33.88;21.20;;;;;;;;;;5034650;28;20787;-76
2022/03/24 01:28:44;;;;;;;35.15;20.98;;;;;;;;;;5054678;28;20579;-76
2022/03/24 01:31:12;;;;;;;33.30;20.98;;;;;;;;;;5054535;28;20197;-74
2022/03/24 01:33:40;;;;;;;30.67;20.13;;;;;;;;;;5046938;28;20219;-76
2022/03/24 01:36:08;;;;;;;31.33;19.75;;;;;;;;;;5039168;28;20194;-76
2022/03/24 01:38:36;;;;;;;33.60;21.70;;;;;;;;;;5046656;28;20629;-76
2022/03/24 01:41:04;;;;;;;32.78;19.40;;;;;;;;;;5052255;28;20203;-74
2022/03/24 01:43:31;;;;;;;28.55;20.23;;;;;;;;;;5052406;28;20223;-76
2022/03/24 01:45:59;;;;;;;29.02;19.17;;;;;;;;;;5052431;28;20199;-76
2022/03/24 01:48:27;;;;;;;32.58;22.45;;;;;;;;;;5053100;28;20195;-75
2022/03/24 01:50:54;;;;;;;30.63;21.88;;;;;;;;;;5054177;28;20367;-77
2022/03/24 01:53:22;;;;;;;31.67;21.60;;;;;;;;;;5054262;28;20214;-76
2022/03/24 01:55:50;;;;;;;35.60;22.55;;;;;;;;;;5048351;28;20585;-77
2022/03/24 01:58:19;;;;;;;32.47;20.88;;;;;;;;;;5038676;28;20195;-74
2022/03/24 02:00:46;;;;;;;29.73;21.23;;;;;;;;;;5044667;28;20599;-74
2022/03/24 02:03:14;;;;;;;35.85;22.50;;;;;;;;;;5051806;28;20621;-74
2022/03/24 02:05:42;;;;;;;29.75;20.00;;;;;;;;;;5051827;28;20186;-77
2022/03/24 02:08:09;;;;;;;30.30;20.77;;;;;;;;;;5052125;28;20205;-75
2022/03/24 02:10:37;;;;;;;27.75;19.88;;;;;;;;;;5052553;28;20202;-77
2022/03/24 02:13:04;;;;;;;28.83;19.95;;;;;;;;;;5052614;28;20227;-76
2022/03/24 02:15:34;;;;;;;33.53;21.77;;;;;;;;;;5036523;28;20201;-76
2022/03/24 02:18:02;;;;;;;29.08;20.52;;;;;;;;;;5050479;28;20207;-77
2022/03/24 02:20:30;;;;;;;28.95;19.65;;;;;;;;;;5038394;28;20195;-75
2022/03/24 02:22:59;;;;;;;30.80;21.27;;;;;;;;;;5041811;28;20250;-77
2022/03/24 02:25:31;;;;;;;34.95;20.65;;;;;;;;;;5051197;28;20206;-74
2022/03/24 02:28:01;;;;;;;30.20;20.35;;;;;;;;;;5034212;28;20195;-75
2022/03/24 02:30:31;;;;;;;28.33;20.30;;;;;;;;;;5051591;28;20222;-76
2022/03/24 02:32:58;;;;;;;32.13;21.42;;;;;;;;;;5052115;28;20224;-77
2022/03/24 02:35:25;;;;;;;28.20;19.48;;;;;;;;;;5052754;28;20199;-77
2022/03/24 02:37:52;;;;;;;34.50;22.58;;;;;;;;;;5053266;28;20203;-75
2022/03/24 02:40:21;;;;;;;30.92;20.90;;;;;;;;;;5051720;28;20202;-75
2022/03/24 02:42:48;;;;;;;32.35;21.00;;;;;;;;;;5037730;28;20684;-75
2022/03/24 02:45:16;;;;;;;29.45;20.00;;;;;;;;;;5036967;28;20188;-75
2022/03/24 02:47:44;;;;;;;30.05;19.38;;;;;;;;;;5013107;28;20204;-74
2022/03/24 02:50:11;;;;;;;27.90;21.23;;;;;;;;;;5031020;28;20297;-74
2022/03/24 02:52:39;;;;;;;30.65;19.38;;;;;;;;;;5031264;28;20207;-76
2022/03/24 02:55:07;;;;;;;33.85;21.00;;;;;;;;;;5031522;28;20195;-77
2022/03/24 02:57:36;;;;;;;32.47;20.95;;;;;;;;;;5042848;28;20206;-76
2022/03/24 03:00:04;;;;;;;33.72;21.00;;;;;;;;;;5053067;28;20257;-74
2022/03/24 03:02:31;;;;;;;29.05;21.05;;;;;;;;;;5052857;28;20221;-76
2022/03/24 03:04:58;;;;;;;32.17;21.58;;;;;;;;;;5038789;28;20190;-74
2022/03/24 03:07:26;;;;;;;30.08;19.70;;;;;;;;;;5037850;28;21428;-76
2022/03/24 03:09:53;;;;;;;34.53;22.85;;;;;;;;;;5050208;28;20634;-76
2022/03/24 03:12:20;;;;;;;30.88;20.00;;;;;;;;;;5050229;28;20213;-74
2022/03/24 03:14:49;;;;;;;30.40;19.58;;;;;;;;;;5051045;28;20308;-78
2022/03/24 03:17:16;;;;;;;30.58;20.45;;;;;;;;;;5051249;28;20201;-78
2022/03/24 03:19:45;;;;;;;37.00;21.60;;;;;;;;;;5051223;28;20231;-76
2022/03/24 03:22:12;;;;;;;26.83;19.83;;;;;;;;;;5052663;28;20222;-74
2022/03/24 03:24:40;;;;;;;33.45;22.15;;;;;;;;;;5052412;28;20222;-74
2022/03/24 03:27:08;;;;;;;28.08;20.38;;;;;;;;;;5023045;28;20682;-75
2022/03/24 03:29:35;;;;;;;32.70;21.90;;;;;;;;;;5019242;28;20220;-74
2022/03/24 03:32:04;;;;;;;36.88;20.85;;;;;;;;;;5031428;28;20218;-74
2022/03/24 03:34:31;;;;;;;31.52;20.05;;;;;;;;;;5030406;28;20195;-75
2022/03/24 03:36:59;;;;;;;27.05;20.83;;;;;;;;;;5030337;28;20192;-74
2022/03/24 03:39:27;;;;;;;30.35;20.90;;;;;;;;;;5030770;28;20187;-76
2022/03/24 03:41:55;;;;;;;32.00;20.13;;;;;;;;;;5033316;28;20240;-75
2022/03/24 03:44:23;;;;;;;34.33;21.95;;;;;;;;;;5051854;28;20656;-75
2022/03/24 03:46:51;;;;;;;28.35;21.48;;;;;;;;;;5051735;28;20281;-76
2022/03/24 03:49:20;;;;;;;35.30;20.40;;;;;;;;;;5043642;28;20191;-75
2022/03/24 03:51:48;;;;;;;31.02;19.45;;;;;;;;;;5036828;28;20584;-74
2022/03/24 03:54:15;;;;;;;30.30;19.17;;;;;;;;;;5045035;28;20195;-78
2022/03/24 03:56:42;;;;;;;31.42;20.98;;;;;;;;;;5049778;28;20276;-75
2022/03/24 03:59:10;;;;;;;28.65;20.25;;;;;;;;;;5049817;28;20203;-75
2022/03/24 04:01:37;;;;;;;29.80;20.65;;;;;;;;;;5050267;28;20290;-77
2022/03/24 04:04:05;;;;;;;31.25;20.52;;;;;;;;;;5050297;28;20281;-76
2022/03/24 04:06:34;;;;;;;32.45;20.58;;;;;;;;;;5051282;28;20289;-78
2022/03/24 04:09:01;;;;;;;26.35;20.88;;;;;;;;;;5051959;28;20191;-77
2022/03/24 04:11:29;;;;;;;32.97;21.48;;;;;;;;;;5045901;28;20187;-75
2022/03/24 04:13:56;;;;;;;34.17;21.60;;;;;;;;;;5036000;28;20219;-75
2022/03/24 04:16:23;;;;;;;36.92;25.60;;;;;;;;;;5033388;28;20191;-75
2022/03/24 04:18:50;;;;;;;36.08;23.30;;;;;;;;;;5029739;28;20195;-75
2022/03/24 04:21:18;;;;;;;30.02;21.38;;;;;;;;;;5029508;28;20199;-76
2022/03/24 04:23:46;;;;;;;33.63;22.10;;;;;;;;;;5029303;28;20237;-75
2022/03/24 04:26:14;;;;;;;31.55;20.58;;;;;;;;;;5012938;28;20727;-74
2022/03/24 04:28:43;;;;;;;30.40;18.92;;;;;;;;;;5028229;28;20201;-74
2022/03/24 04:31:10;;;;;;;27.23;20.27;;;;;;;;;;5051528;28;20198;-75
2022/03/24 04:33:38;;;;;;;26.33;19.52;;;;;;;;;;5049203;28;20227;-75
2022/03/24 04:36:08;;;;;;;33.08;20.77;;;;;;;;;;5035943;28;20194;-77
2022/03/24 04:38:35;;;;;;;31.67;20.25;;;;;;;;;;5034260;28;20550;-76
2022/03/24 04:41:04;;;;;;;30.35;20.80;;;;;;;;;;5029119;28;20192;-75
2022/03/24 04:43:32;;;;;;;31.42;21.05;;;;;;;;;;5029252;28;20222;-74
2022/03/24 04:46:00;;;;;;;31.77;21.85;;;;;;;;;;5029381;28;20200;-75
2022/03/24 04:48:27;;;;;;;30.73;21.52;;;;;;;;;;5011950;28;20206;-76
2022/03/24 04:50:54;;;;;;;29.33;19.58;;;;;;;;;;5041342;28;20561;-74
2022/03/24 04:53:21;;;;;;;34.92;20.80;;;;;;;;;;5051238;28;20219;-75
2022/03/24 04:55:48;;;;;;;32.33;20.70;;;;;;;;;;5051278;28;20210;-75
2022/03/24 04:58:17;;;;;;;30.77;20.75;;;;;;;;;;5035877;28;20195;-77
2022/03/24 05:00:44;;;;;;;27.08;19.85;;;;;;;;;;5036551;28;20202;-76
2022/03/24 05:03:11;;;;;;;28.33;19.90;;;;;;;;;;5048278;28;20230;-75
2022/03/24 05:05:38;;;;;;;31.13;20.63;;;;;;;;;;5048584;28;20230;-75
2022/03/24 05:08:06;;;;;;;28.77;19.17;;;;;;;;;;5049244;28;20198;-74
2022/03/24 05:10:33;;;;;;;29.35;20.60;;;;;;;;;;5049229;28;20521;-74
2022/03/24 05:13:00;;;;;;;33.20;20.67;;;;;;;;;;5028401;28;20223;-74
2022/03/24 05:15:29;;;;;;;30.10;20.65;;;;;;;;;;5031073;28;20205;-75
2022/03/24 05:17:56;;;;;;;33.40;20.20;;;;;;;;;;5030868;28;20215;-75
2022/03/24 05:20:26;;;;;;;37.75;21.92;;;;;;;;;;5018378;28;20195;-75
2022/03/24 05:22:56;;;;;;;30.35;20.88;;;;;;;;;;5015110;28;20262;-76
2022/03/24 05:25:25;;;;;;;25.58;20.30;;;;;;;;;;5027046;28;20194;-76
2022/03/24 05:27:52;;;;;;;28.40;19.67;;;;;;;;;;5008653;28;20228;-76
2022/03/24 05:30:19;;;;;;;31.23;21.27;;;;;;;;;;5008666;28;20200;-75
2022/03/24 05:32:48;;;;;;;30.30;21.90;;;;;;;;;;5021020;28;20230;-75
2022/03/24 05:35:16;;;;;;;27.88;18.88;;;;;;;;;;5034206;28;20565;-76
2022/03/24 05:37:44;;;;;;;33.92;19.98;;;;;;;;;;5023209;28;20195;-76
2022/03/24 05:40:12;;;;;;;27.90;20.17;;;;;;;;;;5015641;28;20203;-76
2022/03/24 05:42:39;;;;;;;29.55;19.98;;;;;;;;;;5009351;28;20208;-75
2022/03/24 05:45:09;;;;;;;29.15;20.48;;;;;;;;;;5008735;28;20224;-77
2022/03/24 05:47:37;;;;;;;28.77;19.95;;;;;;;;;;5008815;28;20196;-76
2022/03/24 05:50:06;;;;;;;32.83;19.73;;;;;;;;;;5023982;28;20214;-75
2022/03/24 05:52:33;;;;;;;31.67;20.25;;;;;;;;;;5029110;28;20211;-78
2022/03/24 05:55:00;;;;;;;26.77;19.75;;;;;;;;;;5030530;28;20195;-76
2022/03/24 05:57:27;;;;;;;32.00;20.10;;;;;;;;;;5029857;28;20195;-76
2022/03/24 05:59:54;;;;;;;34.80;21.73;;;;;;;;;;5021095;28;20192;-77
2022/03/24 06:02:22;;;;;;;30.35;21.35;;;;;;;;;;5017387;28;20227;-75
2022/03/24 06:04:49;;;;;;;25.75;19.70;;;;;;;;;;5027414;28;20680;-76
2022/03/24 06:07:17;;;;;;;30.30;19.80;;;;;;;;;;5030689;28;20199;-77
2022/03/24 06:09:46;;;;;;;38.55;21.60;;;;;;;;;;5031773;28;20199;-76
2022/03/24 06:12:14;;;;;;;30.65;21.35;;;;;;;;;;5030743;28;20224;-75
2022/03/24 06:14:42;;;;;;;31.80;20.58;;;;;;;;;;5032111;28;20195;-74
2022/03/24 06:17:09;;;;;;;33.50;19.83;;;;;;;;;;5030280;28;20202;-78
2022/03/24 06:19:37;;;;;;;27.55;20.60;;;;;;;;;;5018889;28;20562;-74
2022/03/24 06:22:04;;;;;;;26.52;20.48;;;;;;;;;;5025705;28;20215;-75
2022/03/24 06:24:33;;;;;;;28.27;21.17;;;;;;;;;;5031636;28;20446;-75
2022/03/24 06:27:01;;;;;;;28.80;19.67;;;;;;;;;;5029426;28;20199;-74
2022/03/24 06:29:28;;;;;;;24.88;19.05;;;;;;;;;;5032113;28;20195;-77
2022/03/24 06:31:56;;;;;;;27.90;20.38;;;;;;;;;;5031629;28;20230;-76
2022/03/24 06:34:25;;;;;;;27.90;20.70;;;;;;;;;;5033364;28;20265;-80
2022/03/24 06:36:52;;;;;;;29.63;20.48;;;;;;;;;;5031239;28;20534;-81
2022/03/24 06:39:19;;;;;;;28.45;20.05;;;;;;;;;;5031361;28;20555;-76
2022/03/24 06:41:48;;;;;;;28.73;19.15;;;;;;;;;;5018101;28;20211;-76
2022/03/24 06:44:15;;;;;;;28.20;20.48;;;;;;;;;;5016886;28;20317;-74
2022/03/24 06:46:43;;;;;;;32.50;21.30;;;;;;;;;;5022751;28;20563;-76
2022/03/24 06:49:11;;;;;;;29.83;21.05;;;;;;;;;;5031061;28;20199;-76
2022/03/24 06:51:38;;;;;;;27.55;19.10;;;;;;;;;;5030464;28;20207;-76
2022/03/24 06:54:05;;;;;;;29.10;20.98;;;;;;;;;;5031517;28;20200;-77
2022/03/24 06:56:32;;;;;;;31.98;21.10;;;;;;;;;;5031457;28;20641;-74
2022/03/24 06:59:01;;;;;;;29.07;20.47;;;;;;;;;;5033991;28;20210;-75
2022/03/24 07:01:28;;;;;;;28.92;21.08;;;;;;;;;;5031475;28;20462;-77
2022/03/24 07:03:55;;;;;;;30.80;22.50;;;;;;;;;;5020512;28;20687;-74
2022/03/24 07:06:22;;;;;;;31.20;20.67;;;;;;;;;;5017785;28;20431;-75
2022/03/24 07:08:50;;;;;;;32.60;21.87;;;;;;;;;;5015038;28;20500;-74
2022/03/24 07:11:17;;;;;;;32.67;22.97;;;;;;;;;;5010945;28;20478;-75
2022/03/24 07:13:44;;;;;;;31.47;21.70;;;;;;;;;;5026152;28;20480;-76
2022/03/24 07:16:12;;;;;;;31.57;21.93;;;;;;;;;;5043849;28;20484;-77
2022/03/24 07:18:40;;;;;;;31.97;23.13;;;;;;;;;;5050296;28;20472;-75
2022/03/24 07:21:07;;;;;;;29.33;24.07;;;;;;;;;;5051823;28;20455;-75
2022/03/24 07:23:34;;;;;;;36.40;23.80;;;;;;;;;;5051691;28;20464;-77
2022/03/24 07:26:02;;;;;;;30.00;22.93;;;;;;;;;;5044527;28;21999;-75
2022/03/24 07:28:29;;;;;;;35.80;24.03;;;;;;;;;;5037232;28;20461;-77
2022/03/24 07:30:56;;;;;;;32.70;22.47;;;;;;;;;;5032941;28;20438;-76
2022/03/24 07:33:25;;;;;;;30.80;22.30;;;;;;;;;;5033866;28;21037;-75
2022/03/24 07:35:52;;;;;;;28.63;19.77;;;;;;;;;;5050118;28;20441;-73
2022/03/24 07:38:19;;;;;;;29.97;24.07;;;;;;;;;;5049755;28;20468;-74
2022/03/24 07:40:46;;;;;;;32.27;23.13;;;;;;;;;;5050500;28;20915;-75
2022/03/24 07:43:13;;;;;;;33.03;23.83;;;;;;;;;;5063337;28;20473;-74
2022/03/24 07:45:41;;;;;;;31.00;23.13;;;;;;;;;;5051970;28;20592;-77
2022/03/24 07:48:09;;;;;;;32.60;24.37;;;;;;;;;;5047398;28;20444;-75
2022/03/24 07:50:38;;;;;;;29.90;23.40;;;;;;;;;;5036533;28;20438;-77
2022/03/24 07:53:10;;;;;;;33.97;24.80;;;;;;;;;;5041477;28;22056;-80
2022/03/24 07:55:40;;;;;;;29.57;22.17;;;;;;;;;;5041320;28;20438;-79
2022/03/24 07:58:08;;;;;;;31.80;23.30;;;;;;;;;;5012600;28;20438;-77
2022/03/24 08:00:35;;;;;;;33.63;24.40;;;;;;;;;;5030297;28;20963;-79
2022/03/24 08:03:05;;;;;;;32.00;22.53;;;;;;;;;;5030167;28;20779;-75
2022/03/24 08:05:33;;;;;;;33.07;23.10;;;;;;;;;;5046316;28;20485;-78
2022/03/24 08:08:01;;;;;;;30.60;23.90;;;;;;;;;;5051314;28;20460;-78
2022/03/24 08:10:28;;;;;;;33.80;23.83;;;;;;;;;;5048392;28;20468;-75
2022/03/24 08:12:55;;;;;;;33.93;24.23;;;;;;;;;;5035914;28;20963;-73
2022/03/24 08:15:23;;;;;;;32.47;25.23;;;;;;;;;;5039173;28;20438;-77
2022/03/24 08:17:50;;;;;;;35.23;25.57;;;;;;;;;;5047953;28;20457;-79
2022/03/24 08:20:17;;;;;;;32.17;25.70;;;;;;;;;;5047490;28;20815;-76
2022/03/24 08:22:44;;;;;;;35.67;24.47;;;;;;;;;;5047858;28;20473;-75
2022/03/24 08:25:13;;;;;;;37.67;26.00;;;;;;;;;;5048701;28;20487;-74
2022/03/24 08:27:40;;;;;;;35.00;26.20;;;;;;;;;;5049010;28;20889;-76
2022/03/24 08:30:08;;;;;;;32.53;23.17;;;;;;;;;;5051603;28;20798;-74
2022/03/24 08:32:35;;;;;;;37.67;27.40;;;;;;;;;;5050191;28;20485;-74
2022/03/24 08:35:03;;;;;;;34.17;26.27;;;;;;;;;;5035635;28;20458;-77
2022/03/24 08:37:30;;;;;;;35.43;26.50;;;;;;;;;;5035813;28;20492;-74
2022/03/24 08:39:57;;;;;;;38.00;27.30;;;;;;;;;;5046822;28;20521;-75
2022/03/24 08:42:26;;;;;;;31.93;25.73;;;;;;;;;;5047905;28;20832;-77
2022/03/24 08:44:53;;;;;;;40.87;28.80;;;;;;;;;;5048545;28;20481;-79
2022/03/24 08:47:20;;;;;;;42.40;28.40;;;;;;;;;;5048689;28;20460;-76
2022/03/24 08:49:48;;;;;;;37.67;25.90;;;;;;;;;;5049889;28;20459;-73
2022/03/24 08:52:15;;;;;;;38.20;29.70;;;;;;;;;;5051104;28;20973;-78
2022/03/24 08:54:42;;;;;;;41.40;28.00;;;;;;;;;;5051121;28;20448;-76
2022/03/24 08:57:09;;;;;;;42.87;31.00;;;;;;;;;;5042958;28;20451;-74
2022/03/24 08:59:38;;;;;;;40.10;29.07;;;;;;;;;;5036147;28;20470;-76
2022/03/24 09:02:08;;;;;;;39.73;29.20;;;;;;;;;;5042782;28;20860;-75
2022/03/24 09:04:35;;;;;;;45.73;30.73;;;;;;;;;;5048412;28;21001;-75
2022/03/24 09:07:02;;;;;;;43.10;28.93;;;;;;;;;;5045838;28;20472;-77
2022/03/24 09:09:29;;;;;;;40.87;28.03;;;;;;;;;;5048863;28;20767;-76
2022/03/24 09:11:57;;;;;;;42.07;29.97;;;;;;;;;;5049044;28;20480;-76
2022/03/24 09:14:24;;;;;;;39.80;28.30;;;;;;;;;;5045839;28;20839;-77
2022/03/24 09:16:52;;;;;;;33.90;26.13;;;;;;;;;;5035681;28;20441;-74
2022/03/24 09:19:19;;;;;;;33.13;25.93;;;;;;;;;;5042294;28;20460;-75
2022/03/24 09:21:46;;;;;;;36.60;28.00;;;;;;;;;;5048591;28;20637;-76
2022/03/24 09:24:14;;;;;;;43.10;29.50;;;;;;;;;;5047341;28;20970;-77
2022/03/24 09:26:41;;;;;;;36.70;28.80;;;;;;;;;;5049023;28;20437;-75
2022/03/24 09:29:08;;;;;;;42.27;28.97;;;;;;;;;;5048656;28;20467;-75
2022/03/24 09:31:36;;;;;;;35.57;27.40;;;;;;;;;;5049857;28;20869;-74
2022/03/24 09:34:05;;;;;;;40.60;29.63;;;;;;;;;;5049074;28;20795;-77
2022/03/24 09:36:32;;;;;;;39.70;29.07;;;;;;;;;;5046877;28;20474;-77
2022/03/24 09:38:59;;;;;;;43.83;33.07;;;;;;;;;;5039364;28;20437;-76
2022/03/24 09:41:28;;;;;;;44.03;32.73;;;;;;;;;;5045521;28;20798;-77
2022/03/24 09:43:57;;;;;;;39.40;29.03;;;;;;;;;;5052350;28;20476;-78
2022/03/24 09:46:24;;;;;;;36.93;29.73;;;;;;;;;;5037476;28;20493;-74
2022/03/24 09:48:51;;;;;;;40.53;30.10;;;;;;;;;;5034658;28;20965;-77
2022/03/24 09:51:20;;;;;;;36.93;28.50;;;;;;;;;;5054950;28;20441;-75
2022/03/24 09:53:47;;;;;;;39.43;28.43;;;;;;;;;;5052303;28;20571;-78
2022/03/24 09:56:14;;;;;;;40.80;30.00;;;;;;;;;;5038380;28;20923;-77
2022/03/24 09:58:44;;;;;;;36.50;27.40;;;;;;;;;;5036208;28;20462;-75
2022/03/24 10:01:13;;;;;;;38.23;29.80;;;;;;;;;;5038767;28;20505;-75
2022/03/24 10:03:40;;;;;;;45.10;30.87;;;;;;;;;;5042032;28;20469;-79
2022/03/24 10:06:09;;;;;;;47.63;30.10;;;;;;;;;;5049992;28;20837;-78
2022/03/24 10:08:38;;;;;;;41.70;31.20;;;;;;;;;;5052137;28;20499;-75
2022/03/24 10:11:06;;;;;;;42.50;28.93;;;;;;;;;;5048939;28;20431;-77
2022/03/24 10:13:49;;;;;;;42.33;31.30;;;;;;;;;;5051763;28;20531;-76
2022/03/24 10:16:40;;;;;;;46.73;33.80;;;;;;;;;;5035477;28;20818;-73
2022/03/24 10:19:08;;;;;;;45.37;31.73;;;;;;;;;;5038389;28;20438;-74
2022/03/24 10:21:37;;;;;;;43.40;32.00;;;;;;;;;;5035553;28;20465;-74
2022/03/24 10:24:10;;;;;;;42.00;31.23;;;;;;;;;;5031148;28;20426;-76
2022/03/24 10:26:41;;;;;;;47.63;35.60;;;;;;;;;;5031635;28;20488;-74
2022/03/24 10:29:08;;;;;;;43.83;32.60;;;;;;;;;;5050357;28;20420;-77
2022/03/24 10:31:36;;;;;;;46.93;35.47;;;;;;;;;;5043608;28;20835;-74
2022/03/24 10:34:04;;;;;;;44.30;33.13;;;;;;;;;;5030999;28;20801;-75
2022/03/24 10:36:31;;;;;;;48.13;34.27;;;;;;;;;;5037811;28;20468;-74
2022/03/24 10:39:04;;;;;;;46.77;34.10;;;;;;;;;;5017044;28;20459;-74
2022/03/24 10:41:33;;;;;;;38.77;30.87;;;;;;;;;;5013961;28;20433;-78
2022/03/24 10:44:02;;;;;;;40.00;30.07;;;;;;;;;;5042917;28;20981;-77
2022/03/24 10:46:30;;;;;;;43.37;32.57;;;;;;;;;;5049840;28;20546;-76
2022/03/24 10:48:57;;;;;;;41.23;30.47;;;;;;;;;;5033225;28;20467;-76
2022/03/24 10:51:25;;;;;;;43.20;32.20;;;;;;;;;;5026427;28;20454;-77
2022/03/24 10:53:53;;;;;;;37.87;29.33;;;;;;;;;;5019865;28;20468;-75
2022/03/24 10:56:27;;;;;;;40.27;28.50;;;;;;;;;;5025618;28;20437;-77
2022/03/24 10:58:56;;;;;;;40.50;29.93;;;;;;;;;;5030466;28;20955;-77
2022/03/24 11:01:27;;;;;;;44.07;30.57;;;;;;;;;;5018449;28;20424;-78
2022/03/24 11:03:54;;;;;;;35.30;27.30;;;;;;;;;;5050712;28;20439;-76
2022/03/24 11:06:22;;;;;;;36.37;28.17;;;;;;;;;;5050291;28;20481;-76
2022/03/24 11:09:04;;;;;;;37.03;28.23;;;;;;;;;;5040243;28;20468;-78
2022/03/24 11:11:31;;;;;;;43.23;29.57;;;;;;;;;;5002564;28;20542;-75
2022/03/24 11:14:02;;;;;;;39.00;28.57;;;;;;;;;;5006199;28;20479;-74
2022/03/24 11:16:30;;;;;;;36.83;28.40;;;;;;;;;;4990420;28;20465;-75
2022/03/24 11:18:58;;;;;;;41.73;29.60;;;;;;;;;;4991714;28;20451;-76
2022/03/24 11:21:30;;;;;;;40.10;30.47;;;;;;;;;;4991318;28;20463;-76
2022/03/24 11:23:58;;;;;;;42.07;28.73;;;;;;;;;;5008222;28;20445;-74
2022/03/24 11:26:25;;;;;;;38.97;27.53;;;;;;;;;;5005722;28;20489;-77
2022/03/24 11:28:54;;;;;;;38.00;25.20;;;;;;;;;;5004020;28;20456;-75
2022/03/24 11:31:25;;;;;;;31.93;23.87;;;;;;;;;;4995535;28;20823;-78
2022/03/24 11:33:54;;;;;;;32.10;24.73;;;;;;;;;;5007756;28;20517;-76
2022/03/24 11:36:22;;;;;;;28.30;19.37;;;;;;;;;;5007951;28;20506;-77
2022/03/24 11:38:50;;;;;;;22.37;17.43;;;;;;;;;;4992194;28;20440;-76
2022/03/24 11:41:19;;;;;;;26.27;15.13;;;;;;;;;;5007927;28;20448;-75
2022/03/24 11:43:50;;;;;;;21.80;13.37;;;;;;;;;;5050839;28;20433;-74
2022/03/24 11:46:20;;;;;;;21.03;14.53;;;;;;;;;;5050578;28;20492;-72
2022/03/24 11:48:49;;;;;;;26.00;14.20;;;;;;;;;;5035482;28;20415;-73
2022/03/24 11:51:19;;;;;;;18.83;13.20;;;;;;;;;;5037567;28;20446;-77
2022/03/24 11:53:47;;;;;;;23.43;14.43;;;;;;;;;;5032735;28;20500;-76
2022/03/24 11:56:16;;;;;;;22.73;15.07;;;;;;;;;;5030285;28;20815;-76
2022/03/24 11:58:46;;;;;;;18.93;13.07;;;;;;;;;;5042215;28;20438;-75
2022/03/24 12:01:31;;;;;;;16.83;11.17;;;;;;;;;;5030253;28;20426;-76
2022/03/24 12:04:03;;;;;;;15.67;9.23;;;;;;;;;;5029138;28;20456;-74
2022/03/24 12:06:45;;;;;;;14.40;9.20;;;;;;;;;;5034472;28;20460;-75
2022/03/24 12:09:13;;;;;;;20.50;10.43;;;;;;;;;;5050512;28;20453;-75
2022/03/24 12:11:42;;;;;;;23.90;11.20;;;;;;;;;;5036395;28;20797;-74
2022/03/24 12:14:11;;;;;;;17.40;11.40;;;;;;;;;;5038064;28;20983;-75
2022/03/24 12:16:39;;;;;;;24.27;14.43;;;;;;;;;;5016914;28;20451;-75
2022/03/24 12:19:09;;;;;;;21.87;13.60;;;;;;;;;;5029459;28;20493;-76
2022/03/24 12:21:37;;;;;;;22.00;11.83;;;;;;;;;;5048645;28;20534;-74
2022/03/24 12:24:08;;;;;;;22.73;13.90;;;;;;;;;;5049948;28;20410;-76
2022/03/24 12:26:38;;;;;;;20.23;14.80;;;;;;;;;;5060892;28;20483;-74
2022/03/24 12:29:21;;;;;;;34.83;17.03;;;;;;;;;;5071709;28;20525;-77
2022/03/24 12:31:56;;;;;;;23.90;17.77;;;;;;;;;;5054266;28;20436;-77
2022/03/24 12:34:28;;;;;;;22.07;17.83;;;;;;;;;;5035995;28;20560;-77
2022/03/24 12:36:55;;;;;;;29.03;19.77;;;;;;;;;;5038681;28;20410;-75
2022/03/24 12:39:38;;;;;;;25.33;17.10;;;;;;;;;;5049021;28;20435;-77
2022/03/24 12:42:06;;;;;;;24.60;17.53;;;;;;;;;;5033746;28;20462;-79
2022/03/24 12:44:48;;;;;;;30.80;18.50;;;;;;;;;;5031832;28;20413;-78
2022/03/24 12:47:30;;;;;;;20.53;15.37;;;;;;;;;;5034167;28;21114;-79
2022/03/24 12:49:59;;;;;;;29.00;17.23;;;;;;;;;;5067367;28;20428;-75
2022/03/24 12:52:41;;;;;;;30.90;20.00;;;;;;;;;;5071484;28;20464;-76
2022/03/24 12:55:20;;;;;;;25.10;16.93;;;;;;;;;;5034439;28;20425;-76
2022/03/24 12:57:55;;;;;;;26.33;17.47;;;;;;;;;;5035368;28;20920;-76
2022/03/24 13:00:24;;;;;;;28.50;17.97;;;;;;;;;;5044459;28;20437;-76
2022/03/24 13:02:51;;;;;;;27.10;18.33;;;;;;;;;;5031339;28;20910;-77
2022/03/24 13:05:23;;;;;;;24.77;17.10;;;;;;;;;;5048300;28;20955;-77
2022/03/24 13:07:52;;;;;;;26.60;16.47;;;;;;;;;;5049230;28;20922;-76
2022/03/24 13:10:20;;;;;;;22.80;15.83;;;;;;;;;;5048852;28;20934;-73
2022/03/24 13:12:48;;;;;;;31.13;17.53;;;;;;;;;;5053155;28;20449;-79
2022/03/24 13:15:24;;;;;;;24.77;17.47;;;;;;;;;;5055104;28;20434;-76
2022/03/24 13:17:53;;;;;;;28.23;17.67;;;;;;;;;;5047518;28;20452;-78
2022/03/24 13:20:21;;;;;;;26.77;16.03;;;;;;;;;;5040033;28;20432;-78
2022/03/24 13:22:50;;;;;;;28.00;17.00;;;;;;;;;;5042073;28;20469;-76
2022/03/24 13:25:18;;;;;;;26.30;16.27;;;;;;;;;;5053167;28;20433;-76
2022/03/24 13:27:49;;;;;;;24.53;17.30;;;;;;;;;;5052509;28;21030;-75
2022/03/24 13:30:17;;;;;;;28.23;19.03;;;;;;;;;;5034964;28;20423;-77
2022/03/24 13:32:46;;;;;;;26.93;17.00;;;;;;;;;;5037084;28;20578;-76
2022/03/24 13:35:15;;;;;;;24.93;14.57;;;;;;;;;;5053066;28;20467;-76
2022/03/24 13:37:44;;;;;;;24.70;16.67;;;;;;;;;;5054221;28;20453;-75
2022/03/24 13:40:14;;;;;;;23.97;16.73;;;;;;;;;;5033754;28;20445;-75
2022/03/24 13:42:42;;;;;;;22.70;15.60;;;;;;;;;;5039923;28;20455;-74
2022/03/24 13:45:11;;;;;;;21.73;15.33;;;;;;;;;;5037268;28;21155;-76
2022/03/24 13:47:41;;;;;;;23.90;16.03;;;;;;;;;;5019652;28;20488;-75
2022/03/24 13:50:08;;;;;;;28.13;15.90;;;;;;;;;;5051020;28;20449;-75
2022/03/24 13:52:37;;;;;;;25.60;16.90;;;;;;;;;;5051598;28;20477;-75
2022/03/24 13:55:06;;;;;;;24.07;17.17;;;;;;;;;;5051601;28;20797;-74
2022/03/24 13:57:43;;;;;;;26.53;17.77;;;;;;;;;;5052468;28;20882;-76
2022/03/24 14:00:11;;;;;;;29.40;18.47;;;;;;;;;;5053374;28;20454;-74
2022/03/24 14:02:38;;;;;;;25.00;19.03;;;;;;;;;;5052570;28;20837;-75
2022/03/24 14:05:07;;;;;;;30.13;19.63;;;;;;;;;;5038721;28;20453;-75
2022/03/24 14:07:34;;;;;;;28.73;19.33;;;;;;;;;;5040633;28;20486;-74
2022/03/24 14:10:01;;;;;;;22.40;17.40;;;;;;;;;;5032727;28;20453;-75
2022/03/24 14:12:29;;;;;;;30.40;20.50;;;;;;;;;;5050876;28;20480;-75
2022/03/24 14:14:57;;;;;;;28.60;20.13;;;;;;;;;;5050885;28;20807;-76
2022/03/24 14:17:25;;;;;;;25.40;18.70;;;;;;;;;;5052123;28;20465;-76
2022/03/24 14:19:55;;;;;;;37.57;20.23;;;;;;;;;;5038236;28;20481;-76
2022/03/24 14:22:24;;;;;;;27.83;19.23;;;;;;;;;;5051525;28;20484;-75